Schedule Details


Flight Number: CTN358
Departure: Franjo Tudman (LDZA) at 23:45
Arrival: Ben Gurion (LLBG) at 03:55
Route: BANUG L603 DOBOT UL603 OLOTA DCT DISOR UL608 FSK UG18 MES UL609 PIKOG UG18 SOLIN

Weather Information
LDZA 172230Z 00000KT CAVOK 19/15 Q1017 NOSIG
LLBG 172220Z VRB02KT 9999 SCT029 22/16 Q1015 NOSIG
Schedule Frequency

Route Map